createdAt,value
2023-05-21T00:00:16.008Z,56.00
2023-05-21T00:01:15.965Z,55.35
2023-05-21T00:02:16.011Z,55.81
2023-05-21T00:03:16.112Z,53.80
2023-05-21T00:04:16.016Z,54.64
2023-05-21T00:05:16.024Z,52.52
2023-05-21T00:06:16.159Z,55.21
2023-05-21T00:07:16.034Z,54.11
2023-05-21T00:08:16.046Z,54.23
2023-05-21T00:09:16.096Z,55.64
2023-05-21T00:10:16.121Z,54.63
2023-05-21T00:11:16.119Z,50.55
2023-05-21T00:12:16.146Z,52.56
2023-05-21T00:13:16.138Z,54.47
2023-05-21T00:14:16.142Z,54.92
2023-05-21T00:15:16.205Z,54.28
2023-05-21T00:16:16.205Z,55.81
2023-05-21T00:17:16.214Z,53.23
2023-05-21T00:18:16.245Z,52.85
2023-05-21T00:19:16.290Z,52.29
2023-05-21T00:20:16.251Z,55.15
2023-05-21T00:21:16.228Z,54.98
2023-05-21T00:22:16.244Z,53.51
2023-05-21T00:23:16.311Z,53.72
2023-05-21T00:24:16.316Z,53.70
2023-05-21T00:25:16.335Z,50.81
2023-05-21T00:26:16.340Z,56.09
2023-05-21T00:27:16.335Z,53.33
2023-05-21T00:28:16.348Z,53.38
2023-05-21T00:29:16.399Z,53.79
2023-05-21T00:30:16.402Z,53.57
2023-05-21T00:31:16.451Z,53.09
2023-05-21T00:32:16.423Z,53.20
2023-05-21T00:33:16.424Z,52.94
2023-05-21T00:34:16.480Z,53.89
2023-05-21T00:35:16.521Z,52.18
2023-05-21T00:36:16.466Z,51.53
2023-05-21T00:37:16.479Z,52.53
2023-05-21T00:38:16.502Z,52.48
2023-05-21T00:39:16.523Z,52.49
2023-05-21T00:40:16.574Z,53.05
2023-05-21T00:41:16.545Z,53.18
2023-05-21T00:42:16.586Z,52.52
2023-05-21T00:43:16.629Z,53.31
2023-05-21T00:44:16.624Z,54.00
2023-05-21T00:45:16.657Z,54.95
2023-05-21T00:46:16.769Z,54.20
2023-05-21T00:47:16.658Z,53.94
2023-05-21T00:48:16.678Z,52.76
2023-05-21T00:49:16.742Z,53.75
2023-05-21T00:50:16.740Z,53.93
2023-05-21T00:51:16.744Z,54.28
2023-05-21T00:52:16.800Z,56.42
2023-05-21T00:53:16.808Z,56.94
2023-05-21T00:54:16.822Z,55.66
2023-05-21T00:55:16.860Z,55.64
2023-05-21T00:56:16.882Z,56.30
2023-05-21T00:57:16.895Z,56.86
2023-05-21T00:58:16.906Z,54.16
2023-05-21T00:59:16.897Z,53.61
2023-05-21T01:00:16.957Z,53.74
2023-05-21T01:01:16.992Z,53.51
2023-05-21T01:02:17.032Z,56.60
2023-05-21T01:03:17.140Z,56.46
2023-05-21T01:04:16.972Z,57.44
2023-05-21T01:05:17.006Z,58.65
2023-05-21T01:06:17.006Z,57.84
2023-05-21T01:07:16.998Z,57.29
2023-05-21T01:08:17.020Z,58.34
2023-05-21T01:09:17.080Z,55.84
2023-05-21T01:10:17.096Z,58.12
2023-05-21T01:11:17.121Z,56.81
2023-05-21T01:12:17.144Z,57.78
2023-05-21T01:13:17.188Z,57.39
2023-05-21T01:14:17.166Z,58.63
2023-05-21T01:15:17.187Z,57.78
2023-05-21T01:16:17.207Z,59.33
2023-05-21T01:17:17.229Z,57.54
2023-05-21T01:18:17.305Z,57.27
2023-05-21T01:19:17.392Z,55.96
2023-05-21T01:20:17.284Z,58.13
2023-05-21T01:21:17.419Z,58.28
2023-05-21T01:22:17.333Z,57.13
2023-05-21T01:23:17.341Z,57.79
2023-05-21T01:24:17.407Z,58.60
2023-05-21T01:25:17.433Z,58.49
2023-05-21T01:26:17.530Z,58.29
2023-05-21T01:27:17.551Z,58.69
2023-05-21T01:28:17.625Z,58.74
2023-05-21T01:29:17.647Z,56.24
2023-05-21T01:30:17.697Z,59.94
2023-05-21T01:31:17.717Z,60.29
2023-05-21T01:32:17.773Z,58.89
2023-05-21T01:33:17.884Z,59.42
2023-05-21T01:34:17.859Z,60.00
2023-05-21T01:35:17.932Z,58.63
2023-05-21T01:36:17.942Z,57.85
2023-05-21T01:37:18.012Z,57.28
2023-05-21T01:38:18.091Z,59.90
2023-05-21T01:39:18.115Z,57.80
2023-05-21T01:40:18.172Z,59.45
2023-05-21T01:41:18.173Z,59.23
2023-05-21T01:42:18.257Z,59.20
2023-05-21T01:43:18.303Z,59.76
2023-05-21T01:44:18.348Z,57.48
2023-05-21T01:45:18.393Z,57.90
2023-05-21T01:46:18.447Z,57.56
2023-05-21T01:47:18.490Z,58.92
2023-05-21T01:48:18.546Z,59.25
2023-05-21T01:49:18.578Z,60.38
2023-05-21T01:50:18.686Z,59.16
2023-05-21T01:51:18.681Z,58.88
2023-05-21T01:52:18.718Z,58.65
2023-05-21T01:53:18.741Z,58.34
2023-05-21T01:54:18.799Z,57.45
2023-05-21T01:55:18.881Z,58.35
2023-05-21T01:56:18.897Z,59.46
2023-05-21T01:57:18.958Z,57.47
2023-05-21T01:58:18.975Z,57.28
2023-05-21T01:59:19.067Z,58.42
2023-05-21T02:00:19.107Z,57.73
2023-05-21T02:01:19.218Z,57.40
2023-05-21T02:02:19.202Z,59.75
2023-05-21T02:03:19.313Z,58.58
2023-05-21T02:04:19.285Z,58.47
2023-05-21T02:05:19.339Z,56.53
2023-05-21T02:06:19.370Z,57.24
2023-05-21T02:07:19.450Z,57.99
2023-05-21T02:08:19.502Z,58.72
2023-05-21T02:09:19.508Z,58.93
2023-05-21T02:10:19.597Z,57.18
2023-05-21T02:11:19.616Z,59.62
2023-05-21T02:12:19.672Z,57.70
2023-05-21T02:13:19.712Z,58.59
2023-05-21T02:14:19.764Z,58.65
2023-05-21T02:15:19.829Z,57.02
2023-05-21T02:16:19.947Z,58.78
2023-05-21T02:17:19.908Z,59.32
2023-05-21T02:18:19.959Z,57.09
2023-05-21T02:19:20.029Z,56.09
2023-05-21T02:20:20.061Z,57.07
2023-05-21T02:21:20.109Z,57.92
2023-05-21T02:22:20.137Z,57.32
2023-05-21T02:23:20.212Z,57.90
2023-05-21T02:24:20.269Z,57.09
2023-05-21T02:25:20.310Z,57.02
2023-05-21T02:26:20.365Z,58.86
2023-05-21T02:27:20.437Z,58.65
2023-05-21T02:28:20.455Z,57.56
2023-05-21T02:29:20.510Z,58.04
2023-05-21T02:30:20.563Z,57.35
2023-05-21T02:31:20.618Z,57.58
2023-05-21T02:32:20.663Z,56.39
2023-05-21T02:33:20.704Z,58.33
2023-05-21T02:34:20.892Z,57.93
2023-05-21T02:35:20.792Z,57.09
2023-05-21T02:36:20.824Z,57.17
2023-05-21T02:37:20.866Z,57.47
2023-05-21T02:38:20.913Z,55.82
2023-05-21T02:39:20.980Z,56.08
2023-05-21T02:40:21.024Z,58.41
2023-05-21T02:41:21.057Z,58.12
2023-05-21T02:42:21.110Z,56.13
2023-05-21T02:43:21.168Z,59.93
2023-05-21T02:44:21.239Z,55.87
2023-05-21T02:45:21.285Z,57.97
2023-05-21T02:46:21.344Z,56.83
2023-05-21T02:47:21.355Z,58.73
2023-05-21T02:48:21.364Z,58.75
2023-05-21T02:49:21.459Z,56.81
2023-05-21T02:50:21.496Z,57.40
2023-05-21T02:51:21.533Z,57.57
2023-05-21T02:52:21.577Z,58.57
2023-05-21T02:53:21.642Z,56.53
2023-05-21T02:54:21.689Z,57.18
2023-05-21T02:55:21.746Z,55.71
2023-05-21T02:56:21.750Z,57.65
2023-05-21T02:57:21.819Z,58.86
2023-05-21T02:58:21.894Z,57.91
2023-05-21T02:59:21.895Z,57.37
2023-05-21T03:00:21.982Z,59.68
2023-05-21T03:01:22.052Z,57.92
2023-05-21T03:02:22.146Z,57.27
2023-05-21T03:03:22.180Z,60.13
2023-05-21T03:04:22.133Z,57.64
2023-05-21T03:05:22.208Z,56.44
2023-05-21T03:06:22.230Z,57.01
2023-05-21T03:07:22.312Z,58.54
2023-05-21T03:08:22.327Z,56.20
2023-05-21T03:09:22.346Z,56.48
2023-05-21T03:10:22.425Z,56.23
2023-05-21T03:11:22.469Z,57.15
2023-05-21T03:12:22.550Z,58.02
2023-05-21T03:13:22.595Z,58.14
2023-05-21T03:14:22.589Z,58.02
2023-05-21T03:15:22.681Z,59.27
2023-05-21T03:16:22.812Z,57.25
2023-05-21T03:17:22.770Z,57.72
2023-05-21T03:18:22.821Z,57.21
2023-05-21T03:19:22.884Z,56.93
2023-05-21T03:20:22.930Z,56.14
2023-05-21T03:21:22.951Z,56.48
2023-05-21T03:22:23.012Z,58.41
2023-05-21T03:23:23.069Z,57.04
2023-05-21T03:24:23.078Z,58.99
2023-05-21T03:25:23.165Z,57.41
2023-05-21T03:26:23.224Z,58.57
2023-05-21T03:27:23.249Z,57.81
2023-05-21T03:28:23.296Z,57.09
2023-05-21T03:29:23.349Z,58.25
2023-05-21T03:30:23.403Z,57.21
2023-05-21T03:31:23.466Z,57.55
2023-05-21T03:32:23.496Z,56.83
2023-05-21T03:33:23.527Z,57.73
2023-05-21T03:34:23.592Z,56.29
2023-05-21T03:35:23.662Z,56.91
2023-05-21T03:36:23.725Z,57.06
2023-05-21T03:37:23.720Z,57.85
2023-05-21T03:38:23.783Z,56.09
2023-05-21T03:39:23.808Z,56.54
2023-05-21T03:40:23.892Z,58.01
2023-05-21T03:41:23.940Z,56.12
2023-05-21T03:42:23.982Z,58.69
2023-05-21T03:43:24.008Z,58.06
2023-05-21T03:44:24.812Z,58.63
2023-05-21T03:45:24.123Z,56.95
2023-05-21T03:46:24.200Z,56.95
2023-05-21T03:47:24.261Z,56.28
2023-05-21T03:48:24.252Z,57.75
2023-05-21T03:49:24.328Z,57.64
2023-05-21T03:50:24.358Z,57.41
2023-05-21T03:51:24.416Z,56.63
2023-05-21T03:52:24.488Z,56.16
2023-05-21T03:53:24.544Z,57.46
2023-05-21T03:54:24.624Z,58.21
2023-05-21T03:55:24.709Z,56.20
2023-05-21T03:56:24.680Z,55.76
2023-05-21T03:57:24.771Z,58.01
2023-05-21T03:58:24.807Z,57.95
2023-05-21T03:59:24.865Z,58.21
2023-05-21T04:00:24.923Z,57.89
2023-05-21T04:01:24.991Z,56.11
2023-05-21T04:02:25.078Z,56.04
2023-05-21T04:03:25.288Z,55.97
2023-05-21T04:04:25.164Z,57.72
2023-05-21T04:05:25.181Z,57.82
2023-05-21T04:06:25.266Z,57.32
2023-05-21T04:07:25.305Z,57.58
2023-05-21T04:08:25.350Z,56.73
2023-05-21T04:09:25.385Z,55.92
2023-05-21T04:10:25.495Z,55.83
2023-05-21T04:11:25.567Z,56.62
2023-05-21T04:12:25.545Z,57.54
2023-05-21T04:13:25.615Z,54.33
2023-05-21T04:14:25.663Z,56.84
2023-05-21T04:15:25.708Z,55.22
2023-05-21T04:16:25.894Z,54.98
2023-05-21T04:17:25.843Z,55.37
2023-05-21T04:18:25.939Z,57.71
2023-05-21T04:19:25.939Z,57.21
2023-05-21T04:20:25.999Z,55.33
2023-05-21T04:21:26.058Z,54.60
2023-05-21T04:22:26.113Z,56.49
2023-05-21T04:23:26.160Z,56.76
2023-05-21T04:24:26.228Z,59.66
2023-05-21T04:25:26.284Z,55.28
2023-05-21T04:26:26.325Z,54.79
2023-05-21T04:27:26.407Z,55.19
2023-05-21T04:28:26.436Z,56.81
2023-05-21T04:29:26.487Z,56.01
2023-05-21T04:30:27.049Z,57.23
2023-05-21T04:31:26.672Z,57.28
2023-05-21T04:32:26.724Z,55.36
2023-05-21T04:33:26.763Z,56.60
2023-05-21T04:34:26.815Z,56.06
2023-05-21T04:35:26.868Z,55.81
2023-05-21T04:36:26.926Z,56.21
2023-05-21T04:37:26.959Z,57.20
2023-05-21T04:38:27.016Z,56.75
2023-05-21T04:39:27.068Z,56.27
2023-05-21T04:40:27.178Z,56.53
2023-05-21T04:41:27.185Z,57.24
2023-05-21T04:42:27.295Z,55.41
2023-05-21T04:43:27.353Z,57.79
2023-05-21T04:44:27.366Z,55.65
2023-05-21T04:45:27.444Z,56.08
2023-05-21T04:46:27.617Z,55.56
2023-05-21T04:47:27.544Z,56.85
2023-05-21T04:48:27.615Z,55.82
2023-05-21T04:49:27.695Z,54.83
2023-05-21T04:50:27.734Z,55.45
2023-05-21T04:51:27.817Z,56.04
2023-05-21T04:52:27.840Z,55.78
2023-05-21T04:53:27.906Z,55.49
2023-05-21T04:54:28.023Z,55.17
2023-05-21T04:55:28.030Z,56.49
2023-05-21T04:56:28.092Z,55.04
2023-05-21T04:57:28.163Z,55.58
2023-05-21T04:58:28.183Z,55.19
2023-05-21T04:59:28.220Z,56.36
2023-05-21T05:00:28.305Z,55.37
2023-05-21T05:01:28.377Z,54.34
2023-05-21T05:02:28.462Z,55.32
2023-05-21T05:03:28.551Z,57.21
2023-05-21T05:04:28.529Z,55.55
2023-05-21T05:05:28.575Z,53.92
2023-05-21T05:06:28.609Z,55.10
2023-05-21T05:07:28.631Z,55.44
2023-05-21T05:08:28.691Z,55.16
2023-05-21T05:09:28.774Z,53.88
2023-05-21T05:10:28.823Z,55.78
2023-05-21T05:11:28.880Z,54.52
2023-05-21T05:12:28.914Z,54.65
2023-05-21T05:13:28.964Z,54.71
2023-05-21T05:14:29.025Z,57.01
2023-05-21T05:15:29.113Z,55.46
2023-05-21T05:16:29.179Z,54.41
2023-05-21T05:17:29.237Z,57.50
2023-05-21T05:18:29.260Z,55.56
2023-05-21T05:19:29.492Z,55.92
2023-05-21T05:20:29.357Z,54.73
2023-05-21T05:21:29.394Z,54.65
2023-05-21T05:22:29.530Z,54.83
2023-05-21T05:23:29.518Z,55.12
2023-05-21T05:24:29.564Z,54.58
2023-05-21T05:25:29.625Z,55.51
2023-05-21T05:26:29.663Z,54.75
2023-05-21T05:27:29.733Z,55.13
2023-05-21T05:28:29.756Z,54.74
2023-05-21T05:29:29.832Z,55.85
2023-05-21T05:30:29.886Z,54.25
2023-05-21T05:31:29.986Z,55.53
2023-05-21T05:32:29.980Z,55.17
2023-05-21T05:33:30.039Z,54.29
2023-05-21T05:34:30.062Z,56.14
2023-05-21T05:35:30.122Z,54.85
2023-05-21T05:36:30.204Z,54.49
2023-05-21T05:37:30.228Z,53.98
2023-05-21T05:38:30.264Z,55.05
2023-05-21T05:39:30.346Z,54.59
2023-05-21T05:40:30.425Z,54.82
2023-05-21T05:41:30.477Z,54.45
2023-05-21T05:42:30.503Z,54.46
2023-05-21T05:43:30.529Z,53.08
2023-05-21T05:44:30.576Z,53.48
2023-05-21T05:45:30.647Z,53.44
2023-05-21T05:46:30.723Z,53.83
2023-05-21T05:47:30.766Z,54.59
2023-05-21T05:48:30.798Z,54.65
2023-05-21T05:49:30.873Z,54.95
2023-05-21T05:50:30.911Z,54.59
2023-05-21T05:51:30.948Z,52.60
2023-05-21T05:52:30.992Z,55.26
2023-05-21T05:53:31.039Z,55.50
2023-05-21T05:54:31.121Z,55.29
2023-05-21T05:55:31.135Z,54.96
2023-05-21T05:56:31.186Z,53.49
2023-05-21T05:57:31.258Z,52.77
2023-05-21T05:58:31.294Z,54.34
2023-05-21T05:59:31.330Z,54.80
2023-05-21T06:00:31.371Z,53.73
2023-05-21T06:01:31.402Z,53.75
2023-05-21T06:02:31.531Z,55.13
2023-05-21T06:03:31.655Z,52.54
2023-05-21T06:04:31.567Z,53.87
2023-05-21T06:05:31.639Z,53.84
2023-05-21T06:06:31.688Z,52.53
2023-05-21T06:07:31.726Z,51.55
2023-05-21T06:08:31.756Z,52.52
2023-05-21T06:09:31.784Z,52.45
2023-05-21T06:10:31.869Z,52.82
2023-05-21T06:11:31.904Z,53.36
2023-05-21T06:12:31.919Z,51.80
2023-05-21T06:13:31.990Z,53.86
2023-05-21T06:14:32.022Z,54.04
2023-05-21T06:15:32.101Z,51.20
2023-05-21T06:16:32.185Z,51.65
2023-05-21T06:17:32.168Z,51.63
2023-05-21T06:18:32.229Z,53.57
2023-05-21T06:19:32.353Z,51.70
2023-05-21T06:20:32.299Z,52.23
2023-05-21T06:21:32.339Z,53.00
2023-05-21T06:22:32.397Z,52.40
2023-05-21T06:23:32.482Z,53.37
2023-05-21T06:24:32.468Z,51.94
2023-05-21T06:25:32.509Z,51.58
2023-05-21T06:26:32.533Z,52.99
2023-05-21T06:27:32.595Z,51.96
2023-05-21T06:28:32.643Z,52.25
2023-05-21T06:29:32.659Z,52.45
2023-05-21T06:30:32.724Z,50.00
2023-05-21T06:31:32.766Z,51.96
2023-05-21T06:32:32.897Z,52.42
2023-05-21T06:33:32.929Z,51.08
2023-05-21T06:34:32.929Z,54.10
2023-05-21T06:35:32.954Z,53.16
2023-05-21T06:36:32.991Z,52.24
2023-05-21T06:37:33.008Z,53.92
2023-05-21T06:38:33.064Z,54.51
2023-05-21T06:39:33.125Z,52.22
2023-05-21T06:40:33.189Z,53.71
2023-05-21T06:41:33.200Z,54.00
2023-05-21T06:42:33.222Z,51.74
2023-05-21T06:43:33.240Z,52.39
2023-05-21T06:44:33.294Z,51.99
2023-05-21T06:45:33.386Z,54.32
2023-05-21T06:46:33.482Z,52.82
2023-05-21T06:47:33.459Z,51.89
2023-05-21T06:48:33.459Z,53.76
2023-05-21T06:49:33.539Z,53.52
2023-05-21T06:50:33.574Z,53.49
2023-05-21T06:51:33.619Z,52.86
2023-05-21T06:52:33.634Z,54.33
2023-05-21T06:53:33.657Z,51.47
2023-05-21T06:54:33.690Z,52.61
2023-05-21T06:55:33.778Z,53.89
2023-05-21T06:56:33.807Z,52.42
2023-05-21T06:57:33.825Z,52.45
2023-05-21T06:58:33.873Z,52.59
2023-05-21T06:59:33.899Z,52.11
2023-05-21T07:00:33.972Z,53.54
2023-05-21T07:01:33.991Z,53.32
2023-05-21T07:02:34.101Z,54.26
2023-05-21T07:03:34.124Z,51.17
2023-05-21T07:04:34.080Z,52.57
2023-05-21T07:05:34.188Z,51.64
2023-05-21T07:06:34.232Z,52.76
2023-05-21T07:07:34.212Z,51.51
2023-05-21T07:08:34.253Z,51.78
2023-05-21T07:09:34.269Z,53.15
2023-05-21T07:10:34.344Z,52.51
2023-05-21T07:11:34.329Z,51.00
2023-05-21T07:12:34.416Z,53.90
2023-05-21T07:13:34.420Z,50.36
2023-05-21T07:14:34.440Z,51.31
2023-05-21T07:15:34.671Z,51.61
2023-05-21T07:16:34.563Z,52.59
2023-05-21T07:17:34.591Z,52.30
2023-05-21T07:18:34.582Z,50.89
2023-05-21T07:19:34.662Z,50.19
2023-05-21T07:20:34.658Z,50.69
2023-05-21T07:21:34.679Z,52.38
2023-05-21T07:22:34.696Z,50.75
2023-05-21T07:23:34.732Z,53.42
2023-05-21T07:24:34.754Z,51.89
2023-05-21T07:25:34.926Z,52.25
2023-05-21T07:26:34.816Z,50.00
2023-05-21T07:27:34.841Z,52.27
2023-05-21T07:28:34.874Z,52.74
2023-05-21T07:29:34.894Z,52.02
2023-05-21T07:30:34.955Z,53.45
2023-05-21T07:31:35.013Z,52.96
2023-05-21T07:32:35.020Z,51.86
2023-05-21T07:33:35.018Z,51.51
2023-05-21T07:34:35.069Z,51.50
2023-05-21T07:35:35.305Z,52.66
2023-05-21T07:36:35.116Z,51.15
2023-05-21T07:37:35.185Z,50.67
2023-05-21T07:38:35.163Z,52.77
2023-05-21T07:39:35.207Z,52.05
2023-05-21T07:40:35.293Z,50.52
2023-05-21T07:41:35.250Z,52.61
2023-05-21T07:42:35.373Z,52.01
2023-05-21T07:43:35.336Z,52.58
2023-05-21T07:44:35.378Z,50.56
2023-05-21T07:45:35.701Z,52.92
2023-05-21T07:46:35.449Z,52.25
2023-05-21T07:47:35.444Z,52.57
2023-05-21T07:48:35.876Z,53.77
2023-05-21T07:49:35.489Z,50.00
2023-05-21T07:50:35.535Z,51.92
2023-05-21T07:51:35.548Z,50.92
2023-05-21T07:52:35.589Z,52.17
2023-05-21T07:53:35.616Z,53.33
2023-05-21T07:54:35.659Z,51.50
2023-05-21T07:55:35.926Z,52.66
2023-05-21T07:56:35.660Z,52.17
2023-05-21T07:57:35.698Z,53.61
2023-05-21T07:58:35.756Z,51.66
2023-05-21T07:59:35.755Z,54.56
2023-05-21T08:00:35.828Z,53.41
2023-05-21T08:01:35.849Z,51.37
2023-05-21T08:02:36.113Z,53.02
2023-05-21T08:03:36.099Z,52.27
2023-05-21T08:04:37.966Z,51.40
2023-05-21T08:05:36.096Z,53.58
2023-05-21T08:06:35.965Z,54.17
2023-05-21T08:07:36.007Z,53.95
2023-05-21T08:08:35.990Z,51.12
2023-05-21T08:09:36.045Z,53.06
2023-05-21T08:10:36.097Z,54.04
2023-05-21T08:11:36.085Z,51.62
2023-05-21T08:12:36.112Z,51.05
2023-05-21T08:13:36.112Z,51.21
2023-05-21T08:14:36.187Z,51.31
2023-05-21T08:15:36.432Z,52.39
2023-05-21T08:16:36.216Z,52.43
2023-05-21T08:17:36.228Z,54.67
2023-05-21T08:18:36.206Z,52.18
2023-05-21T08:19:36.247Z,52.45
2023-05-21T08:20:36.272Z,51.22
2023-05-21T08:21:36.261Z,50.54
2023-05-21T08:22:36.283Z,50.00
2023-05-21T08:23:36.268Z,52.18
2023-05-21T08:24:36.300Z,52.62
2023-05-21T08:25:36.715Z,53.22
2023-05-21T08:26:36.325Z,50.83
2023-05-21T08:27:36.341Z,51.85
2023-05-21T08:28:36.392Z,51.09
2023-05-21T08:29:36.422Z,52.20
2023-05-21T08:30:36.449Z,51.20
2023-05-21T08:31:36.467Z,52.02
2023-05-21T08:32:36.491Z,54.00
2023-05-21T08:33:36.445Z,51.93
2023-05-21T08:34:36.492Z,51.45
2023-05-21T08:35:36.623Z,52.53
2023-05-21T08:36:36.557Z,53.92
2023-05-21T08:37:36.523Z,52.10
2023-05-21T08:38:36.575Z,52.28
2023-05-21T08:39:36.657Z,51.34
2023-05-21T08:40:36.572Z,52.12
2023-05-21T08:41:36.613Z,52.80
2023-05-21T08:42:37.532Z,52.78
2023-05-21T08:43:36.609Z,51.41
2023-05-21T08:44:36.646Z,51.37
2023-05-21T08:45:36.893Z,50.96
2023-05-21T08:46:36.662Z,53.18
2023-05-21T08:47:36.765Z,51.49
2023-05-21T08:48:36.677Z,52.33
2023-05-21T08:49:36.728Z,50.57
2023-05-21T08:50:36.691Z,50.70
2023-05-21T08:51:36.716Z,51.19
2023-05-21T08:52:36.720Z,51.68
2023-05-21T08:53:36.725Z,51.23
2023-05-21T08:54:36.726Z,52.04
2023-05-21T08:55:36.903Z,51.06
2023-05-21T08:56:36.715Z,51.25
2023-05-21T08:57:36.753Z,52.03
2023-05-21T08:58:36.751Z,52.46
2023-05-21T08:59:36.755Z,51.92
2023-05-21T09:00:36.749Z,50.55
2023-05-21T09:01:36.779Z,52.18
2023-05-21T09:02:36.840Z,52.59
2023-05-21T09:03:36.779Z,53.17
2023-05-21T09:04:36.850Z,52.13
2023-05-21T09:05:37.012Z,50.93
2023-05-21T09:06:36.766Z,51.58
2023-05-21T09:07:36.779Z,52.29
2023-05-21T09:08:36.774Z,51.63
2023-05-21T09:09:36.790Z,51.14
2023-05-21T09:10:36.812Z,52.24
2023-05-21T09:11:36.763Z,52.48
2023-05-21T09:12:36.769Z,51.90
2023-05-21T09:13:38.837Z,52.29
2023-05-21T09:14:36.783Z,54.37
2023-05-21T09:15:37.004Z,52.94
2023-05-21T09:16:36.835Z,51.17
2023-05-21T09:17:36.835Z,51.85
2023-05-21T09:18:36.918Z,51.15
2023-05-21T09:19:36.881Z,51.39
2023-05-21T09:20:36.821Z,51.14
2023-05-21T09:21:36.872Z,51.12
2023-05-21T09:22:36.846Z,50.33
2023-05-21T09:23:36.825Z,51.17
2023-05-21T09:24:36.846Z,50.75
2023-05-21T09:25:37.004Z,50.82
2023-05-21T09:26:36.848Z,50.63
2023-05-21T09:27:36.862Z,51.64
2023-05-21T09:28:36.903Z,52.12
2023-05-21T09:29:36.878Z,50.13
2023-05-21T09:30:37.064Z,51.69
2023-05-21T09:31:36.943Z,50.82
2023-05-21T09:32:36.987Z,52.37
2023-05-21T09:33:36.970Z,51.87
2023-05-21T09:34:37.097Z,51.53
2023-05-21T09:35:38.168Z,51.73
2023-05-21T09:36:36.996Z,51.46
2023-05-21T09:37:37.022Z,51.74
2023-05-21T09:38:37.073Z,51.99
2023-05-21T09:39:37.044Z,51.80
2023-05-21T09:40:37.214Z,50.71
2023-05-21T09:41:37.079Z,50.94
2023-05-21T09:42:37.102Z,50.30
2023-05-21T09:43:37.128Z,50.90
2023-05-21T09:44:37.122Z,50.51
2023-05-21T09:45:39.018Z,50.00
2023-05-21T09:46:37.208Z,51.61
2023-05-21T09:47:37.269Z,52.84
2023-05-21T09:48:37.206Z,52.34
2023-05-21T09:49:37.197Z,51.98
2023-05-21T09:50:37.412Z,52.48
2023-05-21T09:51:37.250Z,52.75
2023-05-21T09:52:37.272Z,52.45
2023-05-21T09:53:37.286Z,52.43
2023-05-21T09:54:37.334Z,50.30
2023-05-21T09:55:37.325Z,52.28
2023-05-21T09:56:37.339Z,52.29
2023-05-21T09:57:37.318Z,53.49
2023-05-21T09:58:37.310Z,52.07
2023-05-21T09:59:37.360Z,52.20
2023-05-21T10:00:37.573Z,53.01
2023-05-21T10:01:37.484Z,51.98
2023-05-21T10:02:37.476Z,52.36
2023-05-21T10:03:37.443Z,54.43
2023-05-21T10:04:37.552Z,53.46
2023-05-21T10:05:37.508Z,52.72
2023-05-21T10:06:37.517Z,53.67
2023-05-21T10:07:37.540Z,53.07
2023-05-21T10:08:37.590Z,51.73
2023-05-21T10:09:37.639Z,53.22
2023-05-21T10:10:37.928Z,54.07
2023-05-21T10:11:37.695Z,54.22
2023-05-21T10:12:37.738Z,54.12
2023-05-21T10:13:37.733Z,53.99
2023-05-21T10:14:37.790Z,54.25
2023-05-21T10:15:37.794Z,53.55
2023-05-21T10:16:37.928Z,52.38
2023-05-21T10:17:37.810Z,53.48
2023-05-21T10:18:37.831Z,53.86
2023-05-21T10:19:38.463Z,54.34
2023-05-21T10:20:38.180Z,54.49
2023-05-21T10:21:37.897Z,52.92
2023-05-21T10:22:37.957Z,52.53
2023-05-21T10:23:37.900Z,51.99
2023-05-21T10:24:37.907Z,54.02
2023-05-21T10:25:37.916Z,53.61
2023-05-21T10:26:37.961Z,53.28
2023-05-21T10:27:37.967Z,53.45
2023-05-21T10:28:38.014Z,53.57
2023-05-21T10:29:38.032Z,53.48
2023-05-21T10:30:38.450Z,53.78
2023-05-21T10:31:38.075Z,53.83
2023-05-21T10:32:38.243Z,53.56
2023-05-21T10:33:38.260Z,52.51
2023-05-21T10:34:38.178Z,53.73
2023-05-21T10:35:38.324Z,52.73
2023-05-21T10:36:38.186Z,52.91
2023-05-21T10:37:38.233Z,52.60
2023-05-21T10:38:38.272Z,52.72
2023-05-21T10:39:38.270Z,53.46
2023-05-21T10:40:38.401Z,52.85
2023-05-21T10:41:38.309Z,54.10
2023-05-21T10:42:38.342Z,52.51
2023-05-21T10:43:38.365Z,51.92
2023-05-21T10:44:38.404Z,53.08
2023-05-21T10:45:38.510Z,52.90
2023-05-21T10:46:38.692Z,53.53
2023-05-21T10:47:38.515Z,52.28
2023-05-21T10:48:38.575Z,51.76
2023-05-21T10:49:38.579Z,53.98
2023-05-21T10:50:38.820Z,53.32
2023-05-21T10:51:38.700Z,53.36
2023-05-21T10:52:38.726Z,53.29
2023-05-21T10:53:38.732Z,53.75
2023-05-21T10:54:38.794Z,55.30
2023-05-21T10:55:38.859Z,53.04
2023-05-21T10:56:38.905Z,54.05
2023-05-21T10:57:38.933Z,51.42
2023-05-21T10:58:38.967Z,53.24
2023-05-21T10:59:39.010Z,52.54
2023-05-21T11:00:39.176Z,53.56
2023-05-21T11:01:39.294Z,53.90
2023-05-21T11:02:39.312Z,54.01
2023-05-21T11:03:39.413Z,54.53
2023-05-21T11:04:39.361Z,54.44
2023-05-21T11:05:39.406Z,54.09
2023-05-21T11:06:39.460Z,54.58
2023-05-21T11:07:39.500Z,53.82
2023-05-21T11:08:39.520Z,53.67
2023-05-21T11:09:39.558Z,53.49
2023-05-21T11:10:39.915Z,53.81
2023-05-21T11:11:39.691Z,52.99
2023-05-21T11:12:39.760Z,54.65
2023-05-21T11:13:39.820Z,55.33
2023-05-21T11:14:40.172Z,53.28
2023-05-21T11:15:39.922Z,53.11
2023-05-21T11:16:40.044Z,53.44
2023-05-21T11:17:40.153Z,53.17
2023-05-21T11:18:40.097Z,54.12
2023-05-21T11:19:40.284Z,52.77
2023-05-21T11:20:40.215Z,52.51
2023-05-21T11:21:40.329Z,52.91
2023-05-21T11:22:40.366Z,52.76
2023-05-21T11:23:40.428Z,54.83
2023-05-21T11:24:40.547Z,54.04
2023-05-21T11:25:40.586Z,53.93
2023-05-21T11:26:40.671Z,53.78
2023-05-21T11:27:40.721Z,53.71
2023-05-21T11:28:40.811Z,54.42
2023-05-21T11:29:40.850Z,52.83
2023-05-21T11:30:41.220Z,52.64
2023-05-21T11:31:41.094Z,53.65
2023-05-21T11:32:41.172Z,53.74
2023-05-21T11:33:41.108Z,53.48
2023-05-21T11:34:41.187Z,53.58
2023-05-21T11:35:41.244Z,53.81
2023-05-21T11:36:41.293Z,54.38
2023-05-21T11:37:41.351Z,54.57
2023-05-21T11:38:41.402Z,55.05
2023-05-21T11:39:41.501Z,52.82
2023-05-21T11:40:41.546Z,54.48
2023-05-21T11:41:41.619Z,52.79
2023-05-21T11:42:41.694Z,53.83
2023-05-21T11:43:41.750Z,53.56
2023-05-21T11:44:41.840Z,53.33
2023-05-21T11:45:41.894Z,53.93
2023-05-21T11:46:42.031Z,53.02
2023-05-21T11:47:42.057Z,54.35
2023-05-21T11:48:42.124Z,53.58
2023-05-21T11:49:42.143Z,54.46
2023-05-21T11:50:42.208Z,53.81
2023-05-21T11:51:42.295Z,54.38
2023-05-21T11:52:44.070Z,54.91
2023-05-21T11:53:44.098Z,53.68
2023-05-21T11:54:42.521Z,53.82
2023-05-21T11:55:42.580Z,54.51
2023-05-21T11:56:42.637Z,53.95
2023-05-21T11:57:42.688Z,53.98
2023-05-21T11:58:42.758Z,54.43
2023-05-21T11:59:42.797Z,53.60
2023-05-21T12:00:42.887Z,55.08
2023-05-21T12:01:42.950Z,53.49
2023-05-21T12:02:43.019Z,54.08
2023-05-21T12:03:43.227Z,54.01
2023-05-21T12:04:43.140Z,54.48
2023-05-21T12:05:43.252Z,54.74
2023-05-21T12:06:43.305Z,54.68
2023-05-21T12:07:43.329Z,53.75
2023-05-21T12:08:43.406Z,54.21
2023-05-21T12:09:43.488Z,54.09
2023-05-21T12:10:46.037Z,54.74
2023-05-21T12:11:43.780Z,53.71
2023-05-21T12:12:54.770Z,53.35
2023-05-21T12:13:44.882Z,53.55
2023-05-21T12:14:43.868Z,53.88
2023-05-21T12:15:43.844Z,54.00
2023-05-21T12:16:43.921Z,54.80
2023-05-21T12:17:43.911Z,54.82
2023-05-21T12:18:43.904Z,54.70
2023-05-21T12:19:43.890Z,55.15
2023-05-21T12:20:43.924Z,54.45
2023-05-21T12:21:43.922Z,55.02
2023-05-21T12:22:43.942Z,54.07
2023-05-21T12:23:43.931Z,54.92
2023-05-21T12:24:43.982Z,55.19
2023-05-21T12:25:44.019Z,54.59
2023-05-21T12:26:44.145Z,53.38
2023-05-21T12:27:44.137Z,55.11
2023-05-21T12:28:44.194Z,54.33
2023-05-21T12:29:44.307Z,53.75
2023-05-21T12:30:44.364Z,53.98
2023-05-21T12:31:44.442Z,55.21
2023-05-21T12:32:44.546Z,55.61
2023-05-21T12:33:44.529Z,55.10
2023-05-21T12:34:44.637Z,54.55
2023-05-21T12:35:44.746Z,54.28
2023-05-21T12:36:44.729Z,54.44
2023-05-21T12:37:44.776Z,54.90
2023-05-21T12:38:44.853Z,54.48
2023-05-21T12:39:44.915Z,53.17
2023-05-21T12:40:44.954Z,54.80
2023-05-21T12:41:45.030Z,54.61
2023-05-21T12:42:45.117Z,54.82
2023-05-21T12:43:45.143Z,54.24
2023-05-21T12:44:45.222Z,54.10
2023-05-21T12:45:45.297Z,54.60
2023-05-21T12:46:45.342Z,54.85
2023-05-21T12:47:45.411Z,55.14
2023-05-21T12:48:45.458Z,55.39
2023-05-21T12:49:45.501Z,54.15
2023-05-21T12:50:45.542Z,54.54
2023-05-21T12:51:45.630Z,54.45
2023-05-21T12:52:45.666Z,54.41